createdAt,value
2022-10-24T00:01:57.313Z,8.10
2022-10-24T00:04:26.015Z,8.10
2022-10-24T00:06:54.710Z,8.10
2022-10-24T00:09:24.742Z,8.10
2022-10-24T00:11:53.331Z,8.10
2022-10-24T00:14:22.097Z,8.10
2022-10-24T00:16:50.793Z,8.00
2022-10-24T00:19:19.435Z,8.10
2022-10-24T00:21:48.378Z,7.80
2022-10-24T00:24:17.434Z,8.10
2022-10-24T00:26:47.539Z,8.10
2022-10-24T00:29:16.223Z,7.90
2022-10-24T00:31:44.844Z,8.00
2022-10-24T00:34:13.571Z,8.00
2022-10-24T00:36:42.206Z,8.00
2022-10-24T00:39:12.457Z,8.00
2022-10-24T00:41:44.419Z,8.00
2022-10-24T00:44:23.886Z,8.00
2022-10-24T00:46:54.182Z,8.20
2022-10-24T00:51:58.339Z,7.00
2022-10-24T00:54:27.178Z,8.00
2022-10-24T00:57:03.921Z,7.80
2022-10-24T00:59:36.103Z,7.70
2022-10-24T01:02:05.179Z,7.80
2022-10-24T01:04:33.798Z,7.90
2022-10-24T01:07:16.110Z,7.90
2022-10-24T01:10:08.404Z,7.80
2022-10-24T01:12:47.775Z,7.80
2022-10-24T01:15:23.617Z,7.80
2022-10-24T01:18:01.097Z,7.80
2022-10-24T01:20:53.598Z,8.10
2022-10-24T01:23:50.666Z,7.60
2022-10-24T01:26:42.821Z,7.40
2022-10-24T01:29:19.677Z,7.50
2022-10-24T01:31:55.570Z,7.70
2022-10-24T01:34:31.632Z,7.80
2022-10-24T01:37:06.169Z,7.80
2022-10-24T01:39:41.710Z,8.10
2022-10-24T01:42:14.324Z,7.80
2022-10-24T01:44:46.896Z,7.80
2022-10-24T01:47:20.867Z,7.80
2022-10-24T01:49:54.050Z,7.80
2022-10-24T01:52:24.336Z,7.80
2022-10-24T01:54:53.103Z,7.80
2022-10-24T01:57:21.800Z,7.80
2022-10-24T01:59:50.723Z,7.90
2022-10-24T02:02:26.121Z,7.80
2022-10-24T02:04:58.934Z,7.80
2022-10-24T02:07:30.205Z,7.80
2022-10-24T02:10:03.504Z,7.80
2022-10-24T02:12:34.275Z,7.10
2022-10-24T02:15:08.206Z,7.30
2022-10-24T02:17:38.389Z,7.50
2022-10-24T02:20:09.702Z,7.80
2022-10-24T02:22:47.213Z,7.80
2022-10-24T02:25:22.925Z,7.80
2022-10-24T02:27:54.819Z,7.70
2022-10-24T02:30:25.876Z,7.80
2022-10-24T02:32:58.986Z,7.80
2022-10-24T02:35:30.342Z,7.80
2022-10-24T02:38:02.927Z,7.80
2022-10-24T02:40:32.953Z,7.80
2022-10-24T02:43:03.485Z,7.80
2022-10-24T02:45:33.351Z,7.70
2022-10-24T02:48:06.501Z,7.80
2022-10-24T02:50:36.240Z,7.70
2022-10-24T02:53:05.545Z,7.70
2022-10-24T02:55:34.252Z,7.70
2022-10-24T02:58:02.883Z,7.90
2022-10-24T03:00:31.594Z,7.70
2022-10-24T03:03:00.311Z,7.70
2022-10-24T03:05:30.332Z,7.70
2022-10-24T03:07:58.995Z,7.70
2022-10-24T03:10:27.660Z,7.80
2022-10-24T03:12:56.397Z,8.30
2022-10-24T03:15:25.144Z,7.70
2022-10-24T03:17:53.695Z,7.70
2022-10-24T03:20:22.487Z,7.70
2022-10-24T03:22:52.530Z,7.70
2022-10-24T03:25:21.204Z,7.70
2022-10-24T03:27:49.937Z,7.70
2022-10-24T03:30:18.600Z,7.70
2022-10-24T03:32:47.614Z,7.70
2022-10-24T03:35:16.798Z,7.70
2022-10-24T03:37:45.484Z,7.70
2022-10-24T03:40:15.734Z,7.80
2022-10-24T03:42:44.651Z,7.70
2022-10-24T03:45:13.398Z,7.70
2022-10-24T03:47:42.125Z,7.70
2022-10-24T03:50:11.073Z,7.60
2022-10-24T03:52:40.163Z,7.60
2022-10-24T03:55:09.482Z,7.60
2022-10-24T03:57:39.803Z,7.60
2022-10-24T04:00:09.973Z,7.70
2022-10-24T04:02:40.278Z,7.60
2022-10-24T04:05:11.756Z,7.60
2022-10-24T04:07:40.538Z,7.60
2022-10-24T04:10:09.889Z,7.70
2022-10-24T04:12:39.880Z,8.20
2022-10-24T04:15:09.367Z,7.70
2022-10-24T04:17:37.942Z,7.70
2022-10-24T04:20:07.464Z,7.70
2022-10-24T04:22:36.194Z,7.60
2022-10-24T04:25:05.082Z,7.60
2022-10-24T04:27:34.556Z,7.60
2022-10-24T04:30:04.592Z,7.60
2022-10-24T04:32:33.209Z,7.60
2022-10-24T04:35:03.248Z,7.60
2022-10-24T04:37:31.993Z,7.60
2022-10-24T04:40:00.690Z,7.50
2022-10-24T04:42:29.210Z,7.20
2022-10-24T04:44:57.842Z,7.50
2022-10-24T04:47:28.524Z,7.50
2022-10-24T04:49:57.197Z,7.60
2022-10-24T04:52:25.738Z,7.50
2022-10-24T04:54:54.401Z,7.50
2022-10-24T04:59:52.448Z,7.50
2022-10-24T05:02:21.122Z,7.50
2022-10-24T05:04:51.198Z,7.50
2022-10-24T05:07:21.783Z,7.50
2022-10-24T05:09:50.418Z,7.50
2022-10-24T05:14:52.500Z,7.50
2022-10-24T05:17:21.116Z,7.50
2022-10-24T05:19:51.133Z,7.70
2022-10-24T05:22:19.883Z,7.50
2022-10-24T05:24:48.465Z,7.50
2022-10-24T05:27:17.182Z,7.80
2022-10-24T05:29:45.774Z,7.60
2022-10-24T05:32:14.506Z,7.60
2022-10-24T05:34:43.061Z,7.60
2022-10-24T05:37:13.277Z,7.60
2022-10-24T05:39:42.015Z,7.60
2022-10-24T05:42:11.274Z,7.60
2022-10-24T05:44:40.184Z,7.60
2022-10-24T05:47:08.749Z,7.60
2022-10-24T05:49:37.769Z,7.60
2022-10-24T05:52:06.930Z,7.70
2022-10-24T05:54:48.561Z,7.70
2022-10-24T05:57:25.931Z,7.70
2022-10-24T05:59:54.406Z,7.80
2022-10-24T06:02:23.244Z,7.80
2022-10-24T06:04:51.976Z,7.80
2022-10-24T06:07:20.838Z,7.80
2022-10-24T06:09:50.779Z,7.80
2022-10-24T06:12:19.689Z,7.80
2022-10-24T06:14:48.234Z,7.80
2022-10-24T06:17:16.963Z,7.80
2022-10-24T06:19:46.336Z,7.80
2022-10-24T06:22:14.969Z,7.90
2022-10-24T06:24:43.487Z,7.90
2022-10-24T06:27:13.513Z,7.90
2022-10-24T06:29:42.130Z,8.00
2022-10-24T06:32:10.681Z,8.00
2022-10-24T06:34:39.382Z,8.00
2022-10-24T06:37:07.896Z,8.10
2022-10-24T06:39:36.435Z,8.10
2022-10-24T06:42:05.120Z,7.70
2022-10-24T06:44:35.118Z,8.30
2022-10-24T06:47:03.712Z,8.10
2022-10-24T06:49:32.309Z,8.20
2022-10-24T06:52:00.951Z,8.20
2022-10-24T06:54:30.580Z,8.20
2022-10-24T06:56:59.396Z,8.30
2022-10-24T06:59:28.341Z,8.30
2022-10-24T07:02:01.852Z,8.30
2022-10-24T07:04:34.378Z,8.30
2022-10-24T07:07:03.060Z,8.40
2022-10-24T07:09:31.611Z,8.40
2022-10-24T07:12:00.530Z,8.50
2022-10-24T07:14:29.192Z,8.50
2022-10-24T07:16:59.609Z,8.50
2022-10-24T07:19:28.471Z,8.30
2022-10-24T07:21:56.997Z,8.50
2022-10-24T07:24:25.573Z,8.50
2022-10-24T07:26:54.261Z,8.60
2022-10-24T07:31:52.422Z,8.70
2022-10-24T07:34:22.490Z,9.10
2022-10-24T07:36:51.090Z,8.90
2022-10-24T07:39:19.999Z,8.70
2022-10-24T07:41:48.551Z,8.90
2022-10-24T07:44:17.215Z,8.90
2022-10-24T07:46:45.754Z,9.00
2022-10-24T07:49:14.380Z,9.20
2022-10-24T07:51:44.713Z,9.10
2022-10-24T07:54:13.262Z,9.10
2022-10-24T07:56:41.882Z,9.10
2022-10-24T07:59:29.965Z,9.10
2022-10-24T08:01:59.044Z,9.20
2022-10-24T08:04:29.226Z,9.20
2022-10-24T08:07:00.539Z,9.20
2022-10-24T08:09:29.115Z,9.20
2022-10-24T08:11:57.731Z,9.20
2022-10-24T08:14:26.508Z,9.20
2022-10-24T08:16:55.092Z,9.30
2022-10-24T08:21:59.148Z,9.30
2022-10-24T08:24:27.914Z,9.30
2022-10-24T08:26:57.052Z,9.40
2022-10-24T08:29:25.733Z,9.30
2022-10-24T08:31:55.725Z,9.40
2022-10-24T08:34:24.864Z,9.50
2022-10-24T08:36:53.557Z,9.50
2022-10-24T08:39:23.502Z,9.50
2022-10-24T08:41:59.292Z,9.50
2022-10-24T08:44:31.775Z,9.40
2022-10-24T08:47:04.695Z,9.50
2022-10-24T08:49:39.722Z,9.60
2022-10-24T08:52:17.984Z,9.60
2022-10-24T08:54:49.026Z,9.70
2022-10-24T08:57:24.062Z,9.70
2022-10-24T08:59:58.244Z,9.70
2022-10-24T09:02:29.063Z,9.70
2022-10-24T09:05:00.949Z,9.80
2022-10-24T09:07:30.152Z,9.80
2022-10-24T09:10:07.944Z,9.70
2022-10-24T09:12:37.379Z,9.80
2022-10-24T09:15:16.650Z,9.80
2022-10-24T09:17:46.623Z,9.80
2022-10-24T09:20:25.806Z,9.90
2022-10-24T09:22:56.340Z,9.90
2022-10-24T09:25:30.940Z,10.10
2022-10-24T09:28:02.080Z,10.10
2022-10-24T09:30:33.535Z,10.00
2022-10-24T09:33:13.971Z,10.00
2022-10-24T09:35:45.316Z,10.00
2022-10-24T09:38:33.760Z,10.00
2022-10-24T09:41:06.918Z,10.00
2022-10-24T09:43:41.062Z,10.10
2022-10-24T09:46:12.496Z,10.10
2022-10-24T09:51:30.016Z,10.40
2022-10-24T09:56:41.610Z,10.40
2022-10-24T09:59:35.939Z,10.60
2022-10-24T10:02:26.644Z,10.50
2022-10-24T10:07:48.692Z,10.20
2022-10-24T10:10:38.954Z,9.60
2022-10-24T10:13:23.032Z,10.20
2022-10-24T10:15:54.577Z,10.40
2022-10-24T10:21:09.008Z,10.20
2022-10-24T10:23:41.041Z,10.30
2022-10-24T10:26:19.494Z,10.30
2022-10-24T10:28:58.232Z,9.70
2022-10-24T10:31:34.990Z,10.30
2022-10-24T10:34:21.644Z,10.30
2022-10-24T10:42:22.086Z,10.70
2022-10-24T10:45:06.794Z,9.40
2022-10-24T10:47:47.335Z,10.10
2022-10-24T10:50:30.010Z,10.20
2022-10-24T10:53:09.577Z,10.20
2022-10-24T10:55:40.809Z,10.50
2022-10-24T10:58:25.148Z,10.20
2022-10-24T11:01:02.160Z,10.00
2022-10-24T11:03:44.216Z,10.30
2022-10-24T11:06:31.227Z,10.60
2022-10-24T11:09:19.997Z,10.40
2022-10-24T11:11:54.777Z,10.50
2022-10-24T11:14:31.156Z,10.70
2022-10-24T11:17:12.304Z,10.40
2022-10-24T11:20:01.068Z,10.50
2022-10-24T11:22:35.636Z,10.50
2022-10-24T11:25:10.218Z,10.40
2022-10-24T11:27:44.064Z,10.50
2022-10-24T11:30:16.882Z,10.50
2022-10-24T11:32:51.459Z,10.40
2022-10-24T11:38:00.980Z,10.40
2022-10-24T11:43:12.030Z,10.40
2022-10-24T11:45:48.832Z,10.30
2022-10-24T11:48:25.449Z,10.40
2022-10-24T11:50:57.263Z,10.30
2022-10-24T11:53:45.979Z,10.40
2022-10-24T11:56:23.490Z,10.30
2022-10-24T11:58:58.783Z,11.00
2022-10-24T12:01:54.527Z,10.30
2022-10-24T12:04:43.186Z,9.90
2022-10-24T12:07:51.671Z,10.30
2022-10-24T12:10:35.827Z,10.20
2022-10-24T12:13:34.946Z,10.20
2022-10-24T12:16:10.843Z,10.20
2022-10-24T12:18:42.939Z,10.20
2022-10-24T12:21:20.066Z,10.20
2022-10-24T12:23:56.494Z,10.70
2022-10-24T12:26:29.152Z,10.10
2022-10-24T12:28:59.420Z,10.10
2022-10-24T12:31:30.504Z,10.10
2022-10-24T12:34:48.757Z,10.10
2022-10-24T12:37:36.716Z,10.10
2022-10-24T12:40:42.479Z,10.10
2022-10-24T12:43:18.140Z,10.40
2022-10-24T12:45:46.806Z,10.10
2022-10-24T12:48:33.086Z,10.10
2022-10-24T12:51:21.049Z,10.10
2022-10-24T12:54:05.837Z,10.10
2022-10-24T12:56:35.657Z,10.00
2022-10-24T12:59:18.228Z,10.10
2022-10-24T13:01:48.166Z,10.10
2022-10-24T13:04:46.897Z,10.00
2022-10-24T13:07:48.455Z,10.00
2022-10-24T13:10:43.946Z,10.00
2022-10-24T13:13:35.054Z,10.00
2022-10-24T13:16:15.801Z,10.00
2022-10-24T13:18:54.738Z,10.00
2022-10-24T13:21:29.286Z,10.10
2022-10-24T13:24:13.603Z,10.10
2022-10-24T13:26:45.720Z,10.00
2022-10-24T13:29:16.693Z,10.00
2022-10-24T13:31:51.745Z,10.00
2022-10-24T13:34:43.032Z,10.10
2022-10-24T13:37:18.649Z,10.10
2022-10-24T13:39:50.548Z,10.10
2022-10-24T13:42:28.659Z,10.10
2022-10-24T13:45:01.544Z,10.20
2022-10-24T13:47:36.323Z,10.20
2022-10-24T13:50:13.124Z,10.20
2022-10-24T13:52:49.456Z,10.20
2022-10-24T13:55:26.006Z,10.20
2022-10-24T13:58:02.502Z,10.30
2022-10-24T14:00:34.230Z,10.40
2022-10-24T14:03:06.016Z,10.20
2022-10-24T14:05:39.025Z,10.10
2022-10-24T14:08:09.757Z,10.10
2022-10-24T14:10:39.558Z,10.10
2022-10-24T14:13:16.040Z,10.10
2022-10-24T14:15:49.991Z,10.20
2022-10-24T14:18:18.830Z,10.20
2022-10-24T14:20:53.533Z,10.20
2022-10-24T14:23:28.306Z,10.20
2022-10-24T14:26:00.499Z,10.20
2022-10-24T14:28:32.882Z,10.20
2022-10-24T14:31:03.588Z,10.20
2022-10-24T14:33:33.771Z,10.20
2022-10-24T14:36:04.977Z,10.10
2022-10-24T14:38:35.466Z,10.10
2022-10-24T14:41:09.599Z,10.10
2022-10-24T14:43:42.885Z,9.20
2022-10-24T14:46:30.482Z,10.00
2022-10-24T14:49:20.327Z,10.00
2022-10-24T14:51:50.854Z,10.00
2022-10-24T14:54:22.157Z,10.10
2022-10-24T14:56:52.255Z,10.00
2022-10-24T14:59:26.605Z,10.00
2022-10-24T15:01:57.750Z,10.00
2022-10-24T15:04:31.915Z,9.90
2022-10-24T15:07:15.014Z,9.90
2022-10-24T15:09:54.780Z,9.90
2022-10-24T15:12:32.208Z,9.80
2022-10-24T15:15:23.213Z,9.90
2022-10-24T15:17:53.050Z,9.90
2022-10-24T15:20:23.390Z,9.80
2022-10-24T15:22:55.609Z,9.80
2022-10-24T15:25:28.876Z,9.80
2022-10-24T15:28:00.652Z,9.90
2022-10-24T15:30:32.571Z,9.90
2022-10-24T15:33:02.753Z,9.90
2022-10-24T15:35:35.209Z,9.90
2022-10-24T15:38:12.577Z,9.90
2022-10-24T15:40:43.935Z,9.90
2022-10-24T15:43:13.541Z,9.90
2022-10-24T15:45:43.328Z,9.90
2022-10-24T15:48:12.228Z,9.90
2022-10-24T15:50:45.802Z,9.90
2022-10-24T15:53:18.870Z,9.90
2022-10-24T15:55:48.009Z,9.90
2022-10-24T15:58:18.334Z,9.90
2022-10-24T16:00:48.489Z,9.90
2022-10-24T16:03:22.679Z,9.90
2022-10-24T16:05:53.817Z,9.90
2022-10-24T16:08:23.597Z,9.90
2022-10-24T16:10:53.806Z,9.90
2022-10-24T16:13:23.571Z,9.90
2022-10-24T16:15:54.026Z,9.80
2022-10-24T16:18:22.634Z,9.90
2022-10-24T16:20:51.127Z,9.90
2022-10-24T16:23:19.739Z,9.90
2022-10-24T16:25:48.375Z,9.90
2022-10-24T16:28:22.785Z,9.90
2022-10-24T16:30:54.438Z,9.90
2022-10-24T16:33:23.142Z,9.90
2022-10-24T16:35:52.280Z,9.90
2022-10-24T16:38:20.925Z,9.90
2022-10-24T16:40:49.714Z,9.90
2022-10-24T16:43:20.075Z,9.90
2022-10-24T16:46:00.083Z,10.00
2022-10-24T16:48:29.021Z,10.00
2022-10-24T16:50:57.954Z,10.00
2022-10-24T16:53:26.708Z,10.00
2022-10-24T16:55:56.660Z,10.00
2022-10-24T16:58:25.402Z,10.00
2022-10-24T17:01:04.787Z,10.00
2022-10-24T17:03:33.543Z,10.00
2022-10-24T17:06:02.544Z,9.90
2022-10-24T17:08:31.454Z,9.90
2022-10-24T17:11:00.965Z,9.90
2022-10-24T17:13:29.439Z,10.00
2022-10-24T17:15:58.154Z,10.00
2022-10-24T17:18:28.282Z,9.90
2022-10-24T17:21:00.354Z,9.90
2022-10-24T17:23:29.488Z,10.00
2022-10-24T17:25:59.302Z,10.00
2022-10-24T17:28:33.082Z,10.00
2022-10-24T17:31:02.314Z,10.00
2022-10-24T17:33:36.202Z,10.00
2022-10-24T17:36:07.770Z,10.00
2022-10-24T17:38:43.495Z,10.00
2022-10-24T17:41:22.516Z,10.00
2022-10-24T17:43:51.582Z,10.00
2022-10-24T17:46:20.816Z,10.00
2022-10-24T17:48:51.242Z,10.00
2022-10-24T17:51:23.210Z,10.10
2022-10-24T17:53:51.969Z,10.00
2022-10-24T17:56:23.232Z,10.10
2022-10-24T17:58:54.335Z,10.10
2022-10-24T18:01:23.098Z,10.00
2022-10-24T18:03:53.257Z,10.00
2022-10-24T18:06:21.823Z,10.00
2022-10-24T18:08:54.502Z,10.00
2022-10-24T18:11:23.565Z,10.00
2022-10-24T18:13:52.263Z,10.00
2022-10-24T18:16:22.059Z,9.90
2022-10-24T18:18:52.761Z,9.90
2022-10-24T18:21:24.840Z,10.00
2022-10-24T18:23:55.990Z,10.00
2022-10-24T18:26:26.517Z,10.00
2022-10-24T18:28:58.192Z,10.00
2022-10-24T18:31:29.021Z,10.00
2022-10-24T18:34:06.066Z,10.00
2022-10-24T18:36:37.643Z,9.90
2022-10-24T18:39:07.138Z,10.00
2022-10-24T18:41:46.603Z,10.00
2022-10-24T18:44:27.786Z,10.00
2022-10-24T18:47:02.149Z,9.90
2022-10-24T18:49:34.729Z,10.00
2022-10-24T18:52:14.836Z,9.90
2022-10-24T18:55:02.335Z,9.90
2022-10-24T18:57:34.660Z,9.90
2022-10-24T19:00:03.765Z,9.90
2022-10-24T19:02:37.144Z,9.90
2022-10-24T19:05:16.639Z,9.90
2022-10-24T19:07:45.876Z,9.90
2022-10-24T19:10:20.750Z,9.90
2022-10-24T19:12:49.725Z,9.90
2022-10-24T19:15:19.080Z,9.80
2022-10-24T19:17:48.897Z,9.80
2022-10-24T19:20:21.486Z,9.30
2022-10-24T19:22:50.415Z,9.80
2022-10-24T19:25:19.471Z,9.80
2022-10-24T19:27:49.458Z,9.80
2022-10-24T19:30:18.232Z,9.80
2022-10-24T19:32:48.070Z,9.80
2022-10-24T19:35:18.902Z,9.80
2022-10-24T19:37:47.839Z,9.80
2022-10-24T19:40:16.876Z,9.80
2022-10-24T19:42:45.507Z,9.70
2022-10-24T19:45:14.478Z,9.70
2022-10-24T19:47:43.169Z,9.70
2022-10-24T19:50:12.791Z,9.80
2022-10-24T19:52:42.459Z,9.80
2022-10-24T19:55:11.111Z,9.70
2022-10-24T19:57:39.948Z,9.80
2022-10-24T20:00:09.959Z,9.80
2022-10-24T20:02:42.028Z,9.80
2022-10-24T20:05:11.004Z,9.90
2022-10-24T20:07:39.711Z,9.90
2022-10-24T20:10:10.744Z,9.80
2022-10-24T20:12:39.598Z,9.80
2022-10-24T20:15:09.950Z,9.80
2022-10-24T20:17:38.637Z,9.80
2022-10-24T20:20:09.587Z,9.80
2022-10-24T20:22:38.198Z,9.80
2022-10-24T20:25:07.926Z,9.70
2022-10-24T20:27:40.811Z,9.80
2022-10-24T20:30:10.991Z,9.80
2022-10-24T20:32:39.623Z,9.70
2022-10-24T20:35:09.164Z,9.80
2022-10-24T20:37:38.105Z,9.80
2022-10-24T20:40:07.842Z,9.80
2022-10-24T20:42:37.820Z,9.80
2022-10-24T20:45:07.533Z,9.80
2022-10-24T20:47:36.830Z,9.80
2022-10-24T20:50:06.149Z,9.80
2022-10-24T20:52:34.938Z,9.80
2022-10-24T20:55:07.725Z,9.80
2022-10-24T20:57:45.456Z,9.80
2022-10-24T21:00:15.830Z,9.80
2022-10-24T21:02:47.538Z,9.80
2022-10-24T21:05:16.829Z,9.70
2022-10-24T21:07:50.146Z,9.80
2022-10-24T21:10:19.924Z,9.80
2022-10-24T21:12:50.531Z,9.80
2022-10-24T21:15:19.387Z,9.80
2022-10-24T21:17:48.156Z,9.80
2022-10-24T21:20:16.949Z,9.70
2022-10-24T21:22:45.534Z,9.80
2022-10-24T21:25:14.156Z,9.80
2022-10-24T21:27:42.796Z,9.80
2022-10-24T21:30:14.936Z,9.80
2022-10-24T21:32:43.851Z,9.80
2022-10-24T21:35:12.401Z,9.80
2022-10-24T21:37:40.962Z,9.80
2022-10-24T21:40:10.305Z,9.80
2022-10-24T21:42:38.914Z,9.80
2022-10-24T21:45:08.196Z,9.80
2022-10-24T21:50:37.308Z,9.80
2022-10-24T21:53:05.986Z,9.80
2022-10-24T21:55:34.522Z,9.80
2022-10-24T21:58:03.222Z,9.90
2022-10-24T22:00:35.656Z,9.80
2022-10-24T22:03:08.220Z,9.80
2022-10-24T22:05:36.848Z,9.90
2022-10-24T22:08:05.599Z,9.80
2022-10-24T22:10:34.182Z,9.80
2022-10-24T22:13:02.845Z,9.80
2022-10-24T22:15:31.474Z,9.80
2022-10-24T22:18:00.149Z,9.80
2022-10-24T22:20:30.115Z,9.90
2022-10-24T22:22:58.816Z,9.90
2022-10-24T22:25:27.447Z,9.80
2022-10-24T22:27:56.091Z,9.80
2022-10-24T22:30:24.813Z,9.80
2022-10-24T22:32:53.778Z,9.80
2022-10-24T22:35:23.183Z,9.80
2022-10-24T22:37:53.777Z,9.80
2022-10-24T22:40:26.943Z,9.80
2022-10-24T22:42:56.201Z,9.80
2022-10-24T22:45:29.819Z,9.80
2022-10-24T22:48:17.653Z,9.80
2022-10-24T22:50:53.939Z,9.80
2022-10-24T22:53:26.364Z,9.80
2022-10-24T22:56:13.161Z,9.90
2022-10-24T22:58:43.653Z,9.80
2022-10-24T23:01:21.718Z,9.80
2022-10-24T23:04:03.496Z,9.90
2022-10-24T23:06:41.361Z,9.90
2022-10-24T23:09:12.673Z,9.90
2022-10-24T23:11:41.654Z,9.90
2022-10-24T23:14:12.349Z,9.90
2022-10-24T23:16:46.274Z,9.90
2022-10-24T23:19:20.969Z,9.90
2022-10-24T23:21:54.444Z,9.90
2022-10-24T23:24:25.612Z,9.90
2022-10-24T23:27:14.986Z,9.90
2022-10-24T23:29:44.554Z,9.80
2022-10-24T23:32:20.847Z,9.80
2022-10-24T23:35:44.756Z,9.80
2022-10-24T23:38:33.476Z,9.80
2022-10-24T23:41:04.315Z,9.80
2022-10-24T23:43:33.555Z,9.80
2022-10-24T23:46:06.728Z,9.80
2022-10-24T23:48:49.908Z,9.80
2022-10-24T23:51:24.945Z,9.80
2022-10-24T23:53:55.135Z,9.80
2022-10-24T23:56:27.161Z,9.80
2022-10-24T23:58:56.823Z,9.80
